Time;durP1;ratioP1;P1;durP2;ratioP2;P2;SDS_P1;SDS_P2;PMS_P1;PMS_P2;Temp;Humidity;BMP_temperature;BMP_pressure;BME280_temperature;BME280_humidity;BME280_pressure;Samples;Min_cycle;Max_cycle;Signal;HPM_P1;HPM_P2
2021/10/02 00:35:18;;;;;;;9.70;5.90;;;;;;;4.83;69.92;100074.30;111462;1197;60943;-22
2021/10/02 00:38:12;;;;;;;13.20;5.80;;;;;;;4.60;70.36;100070.41;111635;1196;74444;-22
2021/10/02 00:46:15;;;;;;;11.50;6.80;;;;;;;3.91;71.78;100059.47;111614;1196;60778;-22
2021/10/02 00:48:44;;;;;;;6.60;3.90;;;;;;;3.81;72.14;100057.44;111701;1196;61400;-23
2021/10/02 00:51:13;;;;;;;10.00;4.90;;;;;;;4.33;72.20;100055.80;111697;1196;72986;-23
2021/10/02 00:53:41;;;;;;;11.00;5.60;;;;;;;5.02;70.51;100054.22;111456;1197;75456;-22
2021/10/02 00:56:11;;;;;;;13.70;5.10;;;;;;;5.17;69.75;100054.29;111638;1196;73183;-23
2021/10/02 00:58:45;;;;;;;11.70;5.90;;;;;;;5.05;69.57;100053.23;111547;1196;60833;-23
2021/10/02 01:01:14;;;;;;;13.90;6.10;;;;;;;4.84;69.78;100049.63;111701;1196;61677;-24
2021/10/02 01:04:07;;;;;;;38.10;10.80;;;;;;;4.63;70.01;100047.58;111650;1196;74445;-23
2021/10/02 01:06:58;;;;;;;49.30;14.10;;;;;;;4.40;70.57;100041.26;111703;1195;73543;-23
2021/10/02 01:09:54;;;;;;;49.80;14.80;;;;;;;4.20;71.08;100037.59;111680;1196;73877;-23
2021/10/02 01:12:26;;;;;;;39.10;12.20;;;;;;;3.99;71.46;100040.44;111647;1195;61266;-23
2021/10/02 01:15:09;;;;;;;27.70;7.70;;;;;;;3.89;71.97;100039.61;111692;1196;60822;-22
2021/10/02 01:17:45;;;;;;;68.10;13.50;;;;;;;4.54;71.90;100035.71;111741;1196;74407;-22
2021/10/02 01:20:28;;;;;;;43.80;11.30;;;;;;;5.24;70.18;100036.77;111633;1196;74490;-23
2021/10/02 01:23:11;;;;;;;27.50;9.00;;;;;;;5.32;69.47;100031.58;111673;1189;74192;-22
2021/10/02 01:26:15;;;;;;;18.40;7.70;;;;;;;5.13;69.44;100031.20;111668;1195;62127;-22
2021/10/02 01:28:44;;;;;;;10.80;5.20;;;;;;;4.84;69.76;100031.05;111771;1195;60819;-22
2021/10/02 01:31:22;;;;;;;14.80;6.20;;;;;;;4.61;70.13;100025.98;111724;1196;72181;-23
2021/10/02 01:34:01;;;;;;;8.10;4.60;;;;;;;4.36;70.96;100024.90;111737;1196;75399;-22
2021/10/02 01:37:01;;;;;;;8.30;5.20;;;;;;;4.14;71.18;100022.51;111905;1195;74202;-23
2021/10/02 01:47:54;;;;;;;10.00;5.20;;;;;;;5.38;69.22;100026.50;112197;1193;75638;-22
2021/10/02 01:50:25;;;;;;;11.60;5.30;;;;;;;5.18;69.30;100021.68;112138;1192;73989;-22
2021/10/02 01:52:59;;;;;;;7.70;4.90;;;;;;;4.94;69.70;100020.16;112212;1191;60973;-22
2021/10/02 01:55:28;;;;;;;9.80;5.40;;;;;;;4.69;69.96;100020.48;112099;1192;60863;-22
2021/10/02 01:58:06;;;;;;;10.00;5.10;;;;;;;4.47;70.49;100016.94;112270;1192;74324;-21
2021/10/02 02:00:45;;;;;;;10.20;6.10;;;;;;;4.25;71.06;100020.53;112151;1193;74171;-21
2021/10/02 02:03:19;;;;;;;10.70;6.30;;;;;;;4.06;71.55;100016.48;112147;1193;73189;-21
2021/10/02 02:05:47;;;;;;;7.50;4.50;;;;;;;3.92;71.95;100013.21;112085;1192;61059;-22
2021/10/02 02:08:18;;;;;;;11.90;7.20;;;;;;;4.46;72.09;100015.56;112196;1192;60940;-22
2021/10/02 02:10:47;;;;;;;11.90;7.90;;;;;;;5.12;70.52;100017.64;112189;1192;72770;-21
2021/10/02 02:13:15;;;;;;;11.20;7.10;;;;;;;5.26;69.61;100017.76;112341;1192;75630;-21
2021/10/02 02:15:44;;;;;;;12.60;6.80;;;;;;;5.11;69.69;100015.45;112220;1192;73463;-21
2021/10/02 02:18:33;;;;;;;10.70;6.30;;;;;;;4.86;69.82;100012.20;112193;1191;60813;-21
2021/10/02 02:21:04;;;;;;;9.90;6.10;;;;;;;4.63;70.22;100017.80;112085;1192;60808;-21
2021/10/02 02:23:32;;;;;;;11.20;6.10;;;;;;;4.41;70.82;100013.03;112240;1192;74100;-21
2021/10/02 02:26:03;;;;;;;12.80;5.70;;;;;;;4.20;71.22;100007.84;112188;1192;75625;-22
2021/10/02 02:28:35;;;;;;;9.20;4.80;;;;;;;3.99;71.74;99999.52;112216;1192;71273;-22
2021/10/02 02:31:05;;;;;;;6.40;3.10;;;;;;;3.85;71.95;99998.71;112213;1192;61499;-22
2021/10/02 02:33:34;;;;;;;10.90;4.80;;;;;;;4.37;72.04;100004.23;112277;1192;61673;-21
2021/10/02 02:36:04;;;;;;;13.00;6.20;;;;;;;5.03;70.48;100006.16;112249;1192;73460;-21
2021/10/02 02:38:32;;;;;;;14.10;5.70;;;;;;;5.18;69.59;100010.69;112240;1192;75809;-21
2021/10/02 02:41:00;;;;;;;10.50;5.60;;;;;;;5.05;69.63;100008.34;112248;1192;73233;-21
2021/10/02 02:43:32;;;;;;;13.30;7.30;;;;;;;4.83;70.13;100008.90;112245;1191;60778;-21
2021/10/02 02:46:24;;;;;;;10.60;6.70;;;;;;;4.60;70.46;100011.75;112250;1191;61172;-22
2021/10/02 02:49:09;;;;;;;14.10;7.90;;;;;;;4.34;70.86;100006.42;112205;1192;74372;-21
2021/10/02 02:52:00;;;;;;;14.30;8.00;;;;;;;4.12;71.68;100004.37;112221;1192;74907;-22
2021/10/02 02:54:53;;;;;;;17.60;7.30;;;;;;;3.89;72.41;99997.88;112206;1192;73765;-21
2021/10/02 02:57:26;;;;;;;7.60;3.40;;;;;;;3.77;72.61;99994.90;112241;1192;61624;-22
2021/10/02 03:00:01;;;;;;;12.20;5.60;;;;;;;4.35;72.60;99997.25;112175;1193;62134;-22
2021/10/02 03:02:29;;;;;;;9.30;5.20;;;;;;;5.03;70.90;99997.73;112191;1193;74541;-21
2021/10/02 03:05:00;;;;;;;11.90;4.50;;;;;;;5.11;70.40;99993.08;112279;1191;74662;-22
2021/10/02 03:07:28;;;;;;;15.20;5.30;;;;;;;4.94;70.14;99993.30;112283;1192;73103;-22
2021/10/02 03:09:57;;;;;;;9.00;5.20;;;;;;;4.69;70.71;99992.45;112185;1192;60836;-21
2021/10/02 03:12:45;;;;;;;8.20;4.90;;;;;;;4.40;71.17;99990.72;112205;1192;61964;-21
2021/10/02 03:15:15;;;;;;;10.80;5.40;;;;;;;4.17;71.52;99993.02;112174;1192;74383;-22
2021/10/02 03:17:46;;;;;;;8.60;5.50;;;;;;;3.94;72.19;99985.14;112237;1192;75726;-22
2021/10/02 03:20:15;;;;;;;5.70;3.00;;;;;;;3.77;73.03;99981.31;112209;1192;73086;-22
2021/10/02 03:22:47;;;;;;;11.50;4.70;;;;;;;4.26;73.09;99986.42;112107;1193;60843;-21
2021/10/02 03:25:16;;;;;;;9.10;4.90;;;;;;;4.87;71.48;99991.52;112087;1193;60865;-22
2021/10/02 03:27:45;;;;;;;9.80;4.90;;;;;;;4.95;70.88;99986.88;112275;1192;74084;-21
2021/10/02 03:30:16;;;;;;;14.80;8.00;;;;;;;4.78;70.92;99988.63;112281;1192;75730;-22
2021/10/02 03:32:44;;;;;;;15.20;10.10;;;;;;;4.53;71.09;99987.09;112239;1191;74152;-23
2021/10/02 03:35:13;;;;;;;14.90;9.30;;;;;;;4.25;71.83;99985.27;112241;1192;60807;-23
2021/10/02 03:37:42;;;;;;;16.80;9.10;;;;;;;4.01;72.27;99982.47;112194;1192;60738;-23
2021/10/02 03:40:12;;;;;;;17.50;10.30;;;;;;;3.79;72.67;99979.02;112173;1193;75317;-23
2021/10/02 03:42:44;;;;;;;11.90;5.60;;;;;;;3.62;72.97;99978.45;112251;1192;76106;-23
2021/10/02 03:45:13;;;;;;;20.20;9.70;;;;;;;4.07;73.50;99979.63;112067;1192;71274;-23
2021/10/02 03:47:42;;;;;;;24.10;10.80;;;;;;;4.68;72.08;99982.52;112230;1192;61796;-23
2021/10/02 03:50:11;;;;;;;15.10;7.20;;;;;;;4.76;71.43;99986.64;112300;1191;60748;-22
2021/10/02 03:52:39;;;;;;;19.50;10.10;;;;;;;4.58;71.56;99984.13;112243;1192;72523;-22
2021/10/02 03:55:09;;;;;;;26.30;12.20;;;;;;;4.35;71.82;99988.70;112269;1192;75553;-22
2021/10/02 03:57:37;;;;;;;22.60;12.80;;;;;;;4.11;72.00;99989.98;112187;1192;74202;-22
2021/10/02 04:00:07;;;;;;;34.30;18.90;;;;;;;3.89;72.79;99987.39;112231;1192;60831;-22
2021/10/02 04:02:35;;;;;;;24.70;13.90;;;;;;;3.67;72.92;99989.24;112201;1192;61701;-22
2021/10/02 04:05:05;;;;;;;18.70;8.80;;;;;;;3.51;73.80;99990.88;112232;1192;72885;-23
2021/10/02 04:07:34;;;;;;;27.90;14.40;;;;;;;3.97;73.89;99992.04;112249;1192;75668;-22
2021/10/02 04:10:05;;;;;;;32.50;17.20;;;;;;;4.60;72.27;99994.35;112239;1192;73798;-21
2021/10/02 04:12:49;;;;;;;30.90;16.50;;;;;;;4.71;71.59;99989.98;112211;1192;60794;-22
2021/10/02 04:15:18;;;;;;;31.20;19.30;;;;;;;4.55;71.70;99990.46;112233;1192;60815;-22
2021/10/02 04:17:48;;;;;;;27.40;19.30;;;;;;;4.32;71.72;99989.83;112248;1191;75156;-22
2021/10/02 04:20:17;;;;;;;29.80;19.40;;;;;;;4.08;72.34;99991.47;112218;1192;74698;-22
2021/10/02 04:23:05;;;;;;;27.60;18.30;;;;;;;3.83;73.21;99985.23;112216;1191;75429;-22
2021/10/02 04:25:33;;;;;;;21.20;12.50;;;;;;;3.63;73.50;99990.59;112252;1192;60817;-22
2021/10/02 04:28:02;;;;;;;10.80;6.20;;;;;;;3.49;74.09;99990.77;112234;1192;60813;-22
2021/10/02 04:30:32;;;;;;;7.70;4.20;;;;;;;3.99;73.86;99990.95;112276;1192;75411;-21
2021/10/02 04:33:01;;;;;;;8.70;5.00;;;;;;;4.62;72.44;99992.37;112243;1191;75689;-21
2021/10/02 04:35:29;;;;;;;7.60;4.90;;;;;;;4.74;71.58;99995.17;112228;1192;73402;-21
2021/10/02 04:37:58;;;;;;;8.20;4.90;;;;;;;4.60;71.50;99997.65;112203;1192;60839;-22
2021/10/02 04:40:27;;;;;;;12.30;6.10;;;;;;;4.36;71.88;99997.56;112252;1192;60814;-21
2021/10/02 04:42:55;;;;;;;9.00;6.50;;;;;;;4.16;72.32;99999.05;112257;1192;75573;-22
2021/10/02 04:45:24;;;;;;;9.40;5.90;;;;;;;3.99;72.82;99998.52;112282;1192;75601;-22
2021/10/02 04:47:52;;;;;;;8.60;4.00;;;;;;;3.89;72.99;100001.32;112248;1192;73030;-21
2021/10/02 04:50:22;;;;;;;9.00;4.00;;;;;;;3.88;74.03;100001.86;112252;1192;61264;-22
2021/10/02 04:52:54;;;;;;;9.10;4.30;;;;;;;4.59;73.14;100011.23;112271;1192;60903;-21
2021/10/02 04:55:23;;;;;;;12.00;4.80;;;;;;;5.48;71.31;100007.81;112280;1192;74898;-22
2021/10/02 04:57:51;;;;;;;11.80;4.90;;;;;;;5.86;69.85;100012.48;112275;1192;75373;-21
2021/10/02 05:00:20;;;;;;;9.50;5.60;;;;;;;5.96;69.11;100014.78;112269;1192;72890;-23
2021/10/02 05:02:48;;;;;;;10.10;6.40;;;;;;;5.97;69.06;100018.16;112231;1191;61354;-22
2021/10/02 05:05:17;;;;;;;11.50;6.50;;;;;;;5.98;69.00;100021.05;112281;1192;60935;-22
2021/10/02 05:07:47;;;;;;;14.60;6.30;;;;;;;5.93;68.77;100020.06;112260;1192;75387;-21
2021/10/02 05:10:15;;;;;;;11.20;6.30;;;;;;;5.86;69.03;100023.83;112257;1192;75364;-22
2021/10/02 05:12:46;;;;;;;9.40;6.20;;;;;;;5.76;69.34;100026.70;112245;1192;71636;-22
2021/10/02 05:15:21;;;;;;;11.90;6.90;;;;;;;5.66;69.54;100028.75;112232;1192;60831;-25
2021/10/02 05:17:51;;;;;;;9.30;4.40;;;;;;;5.60;70.01;100029.34;112346;1192;60808;-24
2021/10/02 05:20:19;;;;;;;12.10;5.50;;;;;;;6.20;69.93;100030.70;112259;1192;74253;-24
2021/10/02 05:22:47;;;;;;;8.90;6.00;;;;;;;6.94;67.94;100032.14;112222;1192;75718;-23
2021/10/02 05:25:16;;;;;;;12.00;6.40;;;;;;;7.13;67.23;100033.09;112230;1191;73134;-23
2021/10/02 05:27:46;;;;;;;17.20;8.20;;;;;;;7.06;66.99;100028.78;112228;1192;61692;-22
2021/10/02 05:30:15;;;;;;;17.60;8.00;;;;;;;6.91;67.23;100032.33;112290;1192;61674;-23
2021/10/02 05:32:43;;;;;;;17.60;7.70;;;;;;;6.73;67.21;100030.08;112251;1192;73473;-23
2021/10/02 05:35:12;;;;;;;12.80;7.60;;;;;;;6.60;67.86;100029.72;112247;1191;74688;-24
2021/10/02 05:37:40;;;;;;;13.60;7.40;;;;;;;6.52;68.13;100026.46;112230;1192;71896;-25
2021/10/02 05:40:09;;;;;;;13.20;7.40;;;;;;;6.46;67.89;100027.59;112266;1192;60837;-23
2021/10/02 05:42:38;;;;;;;16.60;7.70;;;;;;;6.37;68.38;100029.91;112245;1192;60823;-22
2021/10/02 05:45:07;;;;;;;10.80;5.10;;;;;;;6.34;68.65;100028.17;112254;1191;75296;-22
2021/10/02 05:47:38;;;;;;;9.80;5.70;;;;;;;7.01;68.19;100031.43;112214;1192;74047;-22
2021/10/02 05:50:07;;;;;;;11.90;6.40;;;;;;;7.75;66.22;100029.18;112239;1191;74081;-22
2021/10/02 05:52:36;;;;;;;10.50;6.60;;;;;;;7.97;65.14;100028.31;112197;1192;60819;-22
2021/10/02 05:55:07;;;;;;;11.70;6.30;;;;;;;7.94;64.86;100030.41;112266;1192;60838;-22
2021/10/02 05:57:35;;;;;;;13.20;6.00;;;;;;;7.83;64.43;100031.86;112220;1193;75612;-22
2021/10/02 06:00:07;;;;;;;11.80;5.60;;;;;;;7.67;65.23;100033.93;112252;1192;75891;-22
2021/10/02 06:02:39;;;;;;;11.80;5.80;;;;;;;7.54;65.71;100033.02;112180;1193;74212;-22
2021/10/02 06:05:08;;;;;;;10.10;5.00;;;;;;;7.45;66.74;100039.05;112219;1191;60779;-22
2021/10/02 06:07:36;;;;;;;11.50;5.20;;;;;;;7.39;66.34;100037.47;112193;1193;60895;-22
2021/10/02 06:10:05;;;;;;;10.60;5.20;;;;;;;7.34;66.42;100036.89;112239;1192;75329;-21
2021/10/02 06:12:35;;;;;;;8.40;5.10;;;;;;;7.30;66.70;100041.55;112266;1192;75667;-21
2021/10/02 06:15:04;;;;;;;7.90;4.60;;;;;;;7.27;66.58;100046.87;112253;1192;73947;-21
2021/10/02 06:17:32;;;;;;;8.60;4.00;;;;;;;7.30;66.78;100047.91;112239;1192;62673;-21
2021/10/02 06:20:01;;;;;;;7.50;4.40;;;;;;;7.99;66.04;100049.31;112265;1192;60822;-22
2021/10/02 06:22:31;;;;;;;9.90;5.00;;;;;;;8.78;64.36;100047.58;112205;1192;75196;-22
2021/10/02 06:24:59;;;;;;;8.10;5.00;;;;;;;8.98;62.57;100052.25;112267;1191;75531;-23
2021/10/02 06:27:32;;;;;;;9.90;4.50;;;;;;;8.98;62.79;100056.26;112258;1192;73965;-23
2021/10/02 06:30:00;;;;;;;12.70;5.70;;;;;;;8.87;63.05;100056.18;112259;1192;60824;-23
2021/10/02 06:32:30;;;;;;;10.00;4.50;;;;;;;8.80;63.22;100058.33;112244;1185;60828;-22
2021/10/02 06:34:59;;;;;;;8.90;4.30;;;;;;;8.75;63.91;100060.20;112248;1192;74918;-22
2021/10/02 06:37:27;;;;;;;9.20;4.80;;;;;;;8.71;63.02;100055.08;112269;1192;75660;-22
2021/10/02 06:39:56;;;;;;;14.60;5.60;;;;;;;8.71;63.76;100056.28;112273;1192;73995;-20
2021/10/02 06:42:24;;;;;;;8.60;5.30;;;;;;;8.75;63.65;100060.36;112198;1192;60928;-21
2021/10/02 06:44:52;;;;;;;9.00;4.90;;;;;;;8.82;63.42;100062.55;112255;1192;60858;-24
2021/10/02 06:47:23;;;;;;;7.40;4.60;;;;;;;8.91;63.93;100060.50;112281;1192;75804;-22
2021/10/02 06:49:56;;;;;;;7.40;4.60;;;;;;;9.04;63.16;100062.33;112249;1192;74078;-22
2021/10/02 06:52:26;;;;;;;7.50;4.70;;;;;;;9.20;63.11;100061.95;112247;1192;74009;-22
2021/10/02 06:54:54;;;;;;;12.20;4.60;;;;;;;9.35;62.60;100065.86;112263;1192;61426;-23
2021/10/02 06:57:24;;;;;;;9.10;5.20;;;;;;;9.53;62.54;100069.30;112254;1192;60903;-22
2021/10/02 06:59:52;;;;;;;7.30;4.10;;;;;;;9.69;62.61;100073.16;112255;1192;75411;-24
2021/10/02 07:02:20;;;;;;;10.50;5.00;;;;;;;9.87;61.15;100068.77;112178;1192;75736;-22
2021/10/02 07:04:50;;;;;;;9.60;3.50;;;;;;;10.08;61.38;100071.96;112288;1192;71097;-22
2021/10/02 07:07:19;;;;;;;6.20;3.50;;;;;;;10.91;60.13;100073.29;112239;1191;60832;-21
2021/10/02 07:09:48;;;;;;;16.30;4.40;;;;;;;11.84;56.89;100071.86;112212;1192;60828;-21
2021/10/02 07:12:16;;;;;;;8.70;3.90;;;;;;;12.23;55.67;100068.42;112305;1192;73609;-22
2021/10/02 07:14:45;;;;;;;7.50;4.50;;;;;;;12.39;54.90;100068.69;112244;1191;75410;-22
2021/10/02 07:17:27;;;;;;;8.00;3.80;;;;;;;12.54;55.45;100062.93;112211;1192;73748;-21
2021/10/02 07:19:55;;;;;;;7.60;4.00;;;;;;;12.61;54.02;100061.54;112198;1191;60838;-22
2021/10/02 07:22:44;;;;;;;9.40;3.90;;;;;;;12.71;53.63;100061.16;112154;1194;62921;-22
2021/10/02 07:25:14;;;;;;;10.20;5.50;;;;;;;12.78;53.19;100064.63;112246;1192;74262;-22
2021/10/02 07:27:42;;;;;;;10.70;4.40;;;;;;;12.88;53.31;100064.41;112261;1192;74399;-22
2021/10/02 07:30:12;;;;;;;8.10;4.10;;;;;;;12.96;52.62;100062.59;112286;1192;74291;-22
2021/10/02 07:32:41;;;;;;;5.50;3.70;;;;;;;13.01;52.93;100061.04;112228;1192;61993;-22
2021/10/02 07:35:10;;;;;;;6.30;4.10;;;;;;;13.07;53.35;100057.77;112290;1193;60807;-22
2021/10/02 07:37:38;;;;;;;7.80;4.40;;;;;;;13.19;52.74;100056.67;112240;1192;74299;-21
2021/10/02 07:40:08;;;;;;;7.10;3.70;;;;;;;13.33;53.24;100056.65;112255;1192;74484;-22
2021/10/02 07:42:38;;;;;;;8.70;3.70;;;;;;;13.42;51.91;100060.37;112164;1191;74022;-22
2021/10/02 07:45:09;;;;;;;6.20;3.70;;;;;;;13.53;51.77;100063.58;112249;1192;60802;-21
2021/10/02 07:47:42;;;;;;;8.60;3.50;;;;;;;13.64;50.55;100057.16;112182;1193;60905;-22
2021/10/02 07:50:12;;;;;;;9.40;3.40;;;;;;;13.66;50.29;100061.48;112097;1193;75197;-22
2021/10/02 07:52:41;;;;;;;7.10;3.70;;;;;;;13.80;50.99;100063.91;112244;1192;75641;-22
2021/10/02 07:55:12;;;;;;;8.30;3.10;;;;;;;13.91;49.04;100059.34;112281;1192;72633;-22
2021/10/02 07:57:42;;;;;;;4.10;2.60;;;;;;;13.96;48.55;100060.25;111981;1193;61557;-22
2021/10/02 08:00:14;;;;;;;7.30;2.90;;;;;;;13.98;47.12;100055.70;112133;1194;61832;-22
2021/10/02 08:02:45;;;;;;;5.90;3.00;;;;;;;14.01;47.83;100058.10;112220;1192;74991;-21
2021/10/02 08:05:14;;;;;;;2.70;1.90;;;;;;;14.09;47.00;100053.56;112175;1192;75392;-22
2021/10/02 08:07:45;;;;;;;6.10;2.90;;;;;;;14.06;46.07;100052.44;112258;1191;72650;-22
2021/10/02 08:10:20;;;;;;;5.90;2.80;;;;;;;14.06;45.96;100051.19;112200;1192;60821;-24
2021/10/02 08:12:49;;;;;;;5.90;3.30;;;;;;;13.96;45.45;100051.31;112251;1192;61728;-21
2021/10/02 08:15:37;;;;;;;9.30;2.70;;;;;;;14.08;45.78;100049.84;112251;1192;75406;-21
2021/10/02 08:18:06;;;;;;;11.00;3.20;;;;;;;14.20;46.28;100048.70;112236;1192;74795;-22
2021/10/02 08:20:55;;;;;;;5.00;2.30;;;;;;;14.33;45.24;100050.48;112210;1192;74531;-22
2021/10/02 08:23:25;;;;;;;2.80;2.40;;;;;;;14.38;44.87;100048.45;112224;1192;60892;-22
2021/10/02 08:26:16;;;;;;;4.10;2.60;;;;;;;14.40;44.28;100049.16;112217;1192;63040;-22
2021/10/02 08:28:49;;;;;;;4.60;2.50;;;;;;;14.53;44.32;100040.45;112192;1192;74389;-22
2021/10/02 08:31:21;;;;;;;4.30;2.40;;;;;;;14.75;43.85;100039.20;112219;1192;74295;-23
2021/10/02 08:34:10;;;;;;;6.70;2.50;;;;;;;14.99;43.26;100041.23;112205;1192;73626;-21
2021/10/02 08:36:38;;;;;;;5.70;2.70;;;;;;;15.21;42.61;100042.52;112271;1192;60898;-23
2021/10/02 08:39:07;;;;;;;6.00;2.40;;;;;;;15.36;42.38;100040.23;112229;1192;61148;-22
2021/10/02 08:41:36;;;;;;;7.30;2.50;;;;;;;15.44;42.18;100035.86;112207;1192;74040;-22
2021/10/02 08:44:08;;;;;;;3.70;2.20;;;;;;;15.60;42.04;100033.96;112213;1192;74184;-22
2021/10/02 08:46:46;;;;;;;3.80;1.90;;;;;;;15.82;41.27;100035.04;112204;1193;73793;-22
2021/10/02 08:49:42;;;;;;;3.50;2.30;;;;;;;15.75;40.44;100032.19;112194;1192;61833;-22
2021/10/02 08:52:12;;;;;;;8.40;3.00;;;;;;;15.96;40.40;100025.77;112211;1192;61721;-23
2021/10/02 08:54:43;;;;;;;4.80;2.20;;;;;;;16.14;39.96;100032.08;112255;1192;75303;-23
2021/10/02 08:57:25;;;;;;;5.80;2.60;;;;;;;16.28;39.20;100022.58;112188;1192;75539;-23
2021/10/02 08:59:56;;;;;;;7.90;2.90;;;;;;;16.37;38.71;100025.36;112211;1192;73093;-23
2021/10/02 09:02:25;;;;;;;6.00;2.60;;;;;;;16.52;39.08;100022.23;112306;1192;60810;-24
2021/10/02 09:05:13;;;;;;;3.90;2.00;;;;;;;16.73;38.29;100025.90;112216;1192;62772;-23
2021/10/02 09:07:45;;;;;;;4.70;2.40;;;;;;;16.92;37.86;100020.50;112241;1192;75331;-21
2021/10/02 09:10:34;;;;;;;3.30;2.00;;;;;;;17.07;37.45;100018.84;112215;1192;75788;-21
2021/10/02 09:13:02;;;;;;;3.70;2.20;;;;;;;16.79;37.49;100019.45;112092;1192;74060;-24
2021/10/02 09:15:31;;;;;;;4.30;2.30;;;;;;;17.09;37.99;100017.35;112272;1192;60839;-23
2021/10/02 09:18:23;;;;;;;5.40;2.90;;;;;;;17.49;37.80;100012.93;112251;1192;60806;-21
2021/10/02 09:21:01;;;;;;;8.00;3.00;;;;;;;17.65;36.17;100013.38;112191;1193;73860;-22
2021/10/02 09:23:49;;;;;;;5.30;2.50;;;;;;;17.63;36.02;100009.55;112158;1192;75941;-23
2021/10/02 09:26:39;;;;;;;5.60;2.80;;;;;;;17.41;36.42;100007.18;112234;1191;71142;-23
2021/10/02 09:29:08;;;;;;;11.50;2.80;;;;;;;17.53;36.43;100004.35;112254;1192;61779;-21
2021/10/02 09:31:39;;;;;;;8.90;3.30;;;;;;;17.64;36.20;100002.77;112187;1194;60839;-22
2021/10/02 09:34:20;;;;;;;4.50;2.70;;;;;;;17.63;35.83;100003.84;112239;1192;74315;-23
2021/10/02 09:36:49;;;;;;;4.60;3.30;;;;;;;17.79;36.45;100002.42;112112;1194;73349;-21
2021/10/02 09:39:18;;;;;;;4.90;2.70;;;;;;;18.02;36.33;100001.73;112264;1192;73886;-21
2021/10/02 09:41:52;;;;;;;4.70;2.90;;;;;;;18.21;35.10;100000.47;112299;1194;60836;-21
2021/10/02 09:44:24;;;;;;;3.70;2.40;;;;;;;18.30;35.45;99998.84;112187;1193;61695;-22
2021/10/02 09:46:52;;;;;;;9.10;2.70;;;;;;;18.52;35.46;99999.27;112163;1193;75118;-23
2021/10/02 09:49:21;;;;;;;3.20;2.70;;;;;;;18.81;34.33;99995.71;112212;1192;75889;-23
2021/10/02 09:51:50;;;;;;;5.90;2.30;;;;;;;18.91;33.77;99991.41;112245;1192;72684;-22
2021/10/02 09:54:38;;;;;;;7.10;2.40;;;;;;;18.92;33.89;99994.52;112240;1192;60825;-23
2021/10/02 09:57:12;;;;;;;3.50;2.10;;;;;;;18.85;33.63;99995.66;112249;1192;60806;-23
2021/10/02 09:59:40;;;;;;;;;;;;;;;18.64;33.86;99988.77;112181;1193;75498;-22
2021/10/02 10:02:16;;;;;;;4.80;2.30;;;;;;;18.49;34.23;99979.08;112264;1192;75850;-22
2021/10/02 10:04:52;;;;;;;5.70;2.20;;;;;;;18.51;32.98;99980.59;112231;1192;74349;-22
2021/10/02 10:07:22;;;;;;;5.80;2.90;;;;;;;18.73;33.28;99983.84;112186;1193;62088;-23
2021/10/02 10:10:10;;;;;;;6.00;2.20;;;;;;;18.88;33.21;99980.41;112265;1192;60775;-23
2021/10/02 10:12:42;;;;;;;3.20;2.20;;;;;;;18.87;33.85;99979.11;112163;1192;75665;-22
2021/10/02 10:15:45;;;;;;;6.10;2.50;;;;;;;18.92;33.82;99972.18;112263;1192;75787;-22
2021/10/02 10:18:28;;;;;;;4.80;2.90;;;;;;;18.78;33.87;99971.24;112220;1194;73181;-21
2021/10/02 10:21:03;;;;;;;5.30;2.20;;;;;;;18.77;34.11;99973.95;112180;1193;60870;-21
2021/10/02 10:23:40;;;;;;;3.90;2.50;;;;;;;18.97;34.18;99966.73;112042;1193;60896;-22
2021/10/02 10:26:15;;;;;;;4.20;2.50;;;;;;;18.84;33.31;99961.52;112229;1190;73959;-23
2021/10/02 10:28:45;;;;;;;5.80;2.70;;;;;;;18.54;33.15;99963.59;112222;1192;74002;-22
2021/10/02 10:31:25;;;;;;;4.80;2.90;;;;;;;18.23;33.20;99956.02;112175;1192;72657;-21
2021/10/02 10:33:55;;;;;;;4.50;2.70;;;;;;;18.10;33.67;99956.34;112299;1193;61792;-21
2021/10/02 10:36:26;;;;;;;3.70;2.30;;;;;;;18.06;33.90;99956.77;112226;1193;61686;-22
2021/10/02 10:38:55;;;;;;;15.20;3.50;;;;;;;18.20;34.02;99948.67;112250;1193;74351;-22
2021/10/02 10:41:24;;;;;;;6.10;2.80;;;;;;;18.39;34.18;99950.98;112274;1193;74730;-21
2021/10/02 10:43:54;;;;;;;7.10;2.70;;;;;;;18.35;34.10;99946.75;112277;1192;73376;-21
2021/10/02 10:46:23;;;;;;;3.80;2.60;;;;;;;18.48;34.61;99945.77;112248;1192;61737;-21
2021/10/02 10:48:53;;;;;;;3.10;2.40;;;;;;;18.64;33.17;99936.08;112273;1193;61518;-22
2021/10/02 10:51:22;;;;;;;5.80;2.90;;;;;;;18.57;33.38;99934.95;112258;1192;75268;-22
2021/10/02 10:53:51;;;;;;;3.00;2.30;;;;;;;18.53;33.42;99934.19;112155;1192;76258;-22
2021/10/02 10:56:49;;;;;;;9.70;2.30;;;;;;;18.54;33.67;99934.02;112277;1193;74039;-21
2021/10/02 10:59:19;;;;;;;6.10;3.10;;;;;;;18.67;32.99;99935.25;112174;1191;61948;-22
2021/10/02 11:01:48;;;;;;;5.60;2.70;;;;;;;18.90;32.89;99932.53;112224;1184;60808;-23
2021/10/02 11:04:36;;;;;;;4.80;3.30;;;;;;;19.02;33.08;99926.06;112221;1193;75755;-23
2021/10/02 11:07:05;;;;;;;6.50;3.10;;;;;;;18.97;33.76;99925.59;112246;1192;74805;-21
2021/10/02 11:09:53;;;;;;;4.50;2.70;;;;;;;18.88;33.57;99929.22;112210;1192;74187;-21
2021/10/02 11:12:22;;;;;;;7.30;2.90;;;;;;;18.82;34.16;99926.52;112241;1193;60773;-21
2021/10/02 11:15:10;;;;;;;4.00;2.00;;;;;;;18.92;34.31;99925.98;112281;1193;62771;-21
2021/10/02 11:17:44;;;;;;;3.00;1.80;;;;;;;19.00;33.94;99921.91;112124;1193;75239;-23
2021/10/02 11:20:37;;;;;;;3.30;2.30;;;;;;;18.15;34.30;99924.55;112136;1192;75912;-21
2021/10/02 11:23:44;;;;;;;6.10;2.10;;;;;;;18.16;35.39;99918.33;112224;1194;73977;-21
2021/10/02 11:26:41;;;;;;;3.50;2.30;;;;;;;18.41;35.81;99921.80;112120;1193;62922;-22
2021/10/02 11:29:23;;;;;;;4.70;2.50;;;;;;;18.20;34.66;99915.27;112215;1193;61193;-21
2021/10/02 11:32:22;;;;;;;7.90;2.50;;;;;;;17.82;36.06;99917.71;112231;1192;75323;-21
2021/10/02 11:35:10;;;;;;;3.40;2.20;;;;;;;17.82;35.94;99914.94;112363;1192;75830;-21
2021/10/02 11:37:40;;;;;;;5.70;2.70;;;;;;;17.65;35.22;99907.70;112241;1192;73080;-23
2021/10/02 11:40:36;;;;;;;3.90;2.30;;;;;;;17.45;35.66;99907.12;112211;1193;60827;-23
2021/10/02 11:43:11;;;;;;;3.90;2.30;;;;;;;17.39;35.62;99902.08;112263;1192;60877;-23
2021/10/02 11:45:40;;;;;;;3.20;2.10;;;;;;;17.33;35.30;99899.70;112253;1193;74468;-22
2021/10/02 11:48:13;;;;;;;3.70;2.20;;;;;;;17.26;35.67;99896.18;112185;1193;75409;-22
2021/10/02 11:50:42;;;;;;;3.10;2.70;;;;;;;17.25;35.33;99895.67;112166;1193;72686;-22
2021/10/02 11:53:10;;;;;;;3.80;2.50;;;;;;;17.19;36.14;99895.55;112274;1192;60838;-21
2021/10/02 11:55:48;;;;;;;5.50;2.50;;;;;;;17.17;37.50;99900.55;112298;1192;60813;-22
2021/10/02 11:58:23;;;;;;;5.50;3.10;;;;;;;17.31;37.55;99901.05;112156;1192;74981;-22
2021/10/02 12:00:58;;;;;;;4.70;2.80;;;;;;;17.47;36.56;99900.24;112250;1192;73281;-22
2021/10/02 12:03:31;;;;;;;6.50;2.70;;;;;;;17.43;36.50;99897.35;112198;1194;72386;-22
2021/10/02 12:06:03;;;;;;;4.00;2.30;;;;;;;17.39;36.93;99894.91;112165;1193;60811;-22
2021/10/02 12:08:32;;;;;;;3.50;2.60;;;;;;;17.27;37.08;99894.42;112272;1193;60776;-22
2021/10/02 12:11:13;;;;;;;4.10;2.70;;;;;;;17.27;37.08;99894.88;112233;1192;76534;-21
2021/10/02 12:13:43;;;;;;;5.00;2.60;;;;;;;17.20;37.62;99889.52;112177;1193;72943;-21
2021/10/02 12:16:33;;;;;;;4.80;2.90;;;;;;;17.20;37.36;99883.80;112181;1192;73690;-22
2021/10/02 12:19:09;;;;;;;6.10;3.20;;;;;;;17.12;38.12;99889.72;112219;1192;60825;-22
2021/10/02 12:22:05;;;;;;;5.60;3.30;;;;;;;17.01;37.62;99885.85;112082;1193;61963;-21
2021/10/02 12:24:39;;;;;;;4.30;3.10;;;;;;;16.92;38.41;99890.34;112102;1193;75084;-21
2021/10/02 12:27:10;;;;;;;6.20;3.10;;;;;;;16.89;38.41;99885.90;112259;1192;75542;-21
2021/10/02 12:29:42;;;;;;;9.00;2.70;;;;;;;16.89;38.67;99886.23;112212;1193;73383;-21
2021/10/02 12:32:15;;;;;;;4.50;2.40;;;;;;;16.93;37.89;99879.91;112237;1193;60854;-21
2021/10/02 12:34:46;;;;;;;4.60;2.70;;;;;;;16.91;38.40;99883.33;112379;1192;61743;-21
2021/10/02 12:37:23;;;;;;;6.20;2.80;;;;;;;16.93;38.54;99884.30;112213;1191;75420;-21
2021/10/02 12:40:09;;;;;;;5.90;2.60;;;;;;;17.00;38.42;99883.00;112220;1193;75628;-21